sensor_id;sensor_type;location;lat;lon;timestamp;P1;durP1;ratioP1;P2;durP2;ratioP2
37789;SDS011;23628;51.434;6.988;2023-04-15T00:02:30;7.20;;;3.63;;
37789;SDS011;23628;51.434;6.988;2023-04-15T00:07:41;5.73;;;3.13;;
37789;SDS011;23628;51.434;6.988;2023-04-15T00:12:53;7.07;;;3.92;;
37789;SDS011;23628;51.434;6.988;2023-04-15T00:18:04;7.90;;;4.43;;
37789;SDS011;23628;51.434;6.988;2023-04-15T00:23:16;5.65;;;3.72;;
37789;SDS011;23628;51.434;6.988;2023-04-15T00:28:27;8.52;;;3.95;;
37789;SDS011;23628;51.434;6.988;2023-04-15T00:31:03;8.23;;;4.03;;
37789;SDS011;23628;51.434;6.988;2023-04-15T00:36:13;8.57;;;4.10;;
37789;SDS011;23628;51.434;6.988;2023-04-15T00:41:26;5.28;;;3.80;;
37789;SDS011;23628;51.434;6.988;2023-04-15T00:46:37;6.43;;;4.35;;
37789;SDS011;23628;51.434;6.988;2023-04-15T00:51:50;6.32;;;3.78;;
37789;SDS011;23628;51.434;6.988;2023-04-15T00:57:04;6.80;;;4.07;;
37789;SDS011;23628;51.434;6.988;2023-04-15T01:07:33;6.28;;;4.38;;
37789;SDS011;23628;51.434;6.988;2023-04-15T01:10:09;11.02;;;4.78;;
37789;SDS011;23628;51.434;6.988;2023-04-15T01:12:45;6.50;;;4.40;;
37789;SDS011;23628;51.434;6.988;2023-04-15T01:17:59;8.30;;;4.50;;
37789;SDS011;23628;51.434;6.988;2023-04-15T01:23:11;8.10;;;4.97;;
37789;SDS011;23628;51.434;6.988;2023-04-15T01:28:22;8.00;;;4.45;;
37789;SDS011;23628;51.434;6.988;2023-04-15T01:33:34;6.78;;;4.28;;
37789;SDS011;23628;51.434;6.988;2023-04-15T01:38:46;7.22;;;4.03;;
37789;SDS011;23628;51.434;6.988;2023-04-15T01:41:25;12.40;;;4.80;;
37789;SDS011;23628;51.434;6.988;2023-04-15T01:46:37;6.25;;;4.20;;
37789;SDS011;23628;51.434;6.988;2023-04-15T01:51:50;5.68;;;4.45;;
37789;SDS011;23628;51.434;6.988;2023-04-15T01:57:01;6.20;;;4.90;;
37789;SDS011;23628;51.434;6.988;2023-04-15T01:59:37;7.57;;;5.03;;
37789;SDS011;23628;51.434;6.988;2023-04-15T02:04:51;6.60;;;4.22;;
37789;SDS011;23628;51.434;6.988;2023-04-15T02:10:03;6.20;;;4.60;;
37789;SDS011;23628;51.434;6.988;2023-04-15T02:15:14;9.90;;;5.50;;
37789;SDS011;23628;51.434;6.988;2023-04-15T02:20:26;11.35;;;5.93;;
37789;SDS011;23628;51.434;6.988;2023-04-15T02:25:40;8.10;;;5.40;;
37789;SDS011;23628;51.434;6.988;2023-04-15T02:31:05;10.87;;;6.27;;
37789;SDS011;23628;51.434;6.988;2023-04-15T02:36:17;10.02;;;5.97;;
37789;SDS011;23628;51.434;6.988;2023-04-15T02:41:28;6.93;;;5.28;;
37789;SDS011;23628;51.434;6.988;2023-04-15T02:46:41;9.13;;;5.90;;
37789;SDS011;23628;51.434;6.988;2023-04-15T02:54:27;11.35;;;6.70;;
37789;SDS011;23628;51.434;6.988;2023-04-15T02:57:03;14.20;;;6.65;;
37789;SDS011;23628;51.434;6.988;2023-04-15T03:02:15;9.45;;;6.55;;
37789;SDS011;23628;51.434;6.988;2023-04-15T03:07:26;10.57;;;6.40;;
37789;SDS011;23628;51.434;6.988;2023-04-15T03:12:37;11.90;;;7.25;;
37789;SDS011;23628;51.434;6.988;2023-04-15T03:17:49;9.23;;;7.18;;
37789;SDS011;23628;51.434;6.988;2023-04-15T03:23:01;9.50;;;6.50;;
37789;SDS011;23628;51.434;6.988;2023-04-15T03:30:57;8.80;;;6.78;;
37789;SDS011;23628;51.434;6.988;2023-04-15T03:36:08;7.97;;;6.35;;
37789;SDS011;23628;51.434;6.988;2023-04-15T03:38:44;9.38;;;7.63;;
37789;SDS011;23628;51.434;6.988;2023-04-15T03:43:56;10.15;;;6.90;;
37789;SDS011;23628;51.434;6.988;2023-04-15T03:46:34;9.52;;;7.10;;
37789;SDS011;23628;51.434;6.988;2023-04-15T03:49:12;10.82;;;7.50;;
